Lewis Run, Pennsylvania
Current Conditions -  °F | °C
As of 7:53 PM on Monday 22 Dec 2014 (Local Time) from KBFD Reporting Station
Scattered Clouds Scattered Clouds  
Wind Chill: 19°   Ceiling: Unl
Heat Index: 29°   Visibility: 9mi
Dew Point: 23°   Wind: 12mph
Humidity: 78%   Direction: 130°SE
Pressure: 30.02"   Gusts: NA
Location:  41.87°N, 78.66°W
Report Text: KBFD 230053Z AUTO 13010KT 9SM SCT060 M02/M05 A3002 RMK AO2 SLP190 T10171050
Loading
Personal Weather Stations






























Interactive Weather Map New forecast layout! Learn more

10-Day Weather Forecast

Advertisements
Track Severe Weather on mobile